KBOW/BOW METAR and TAF weather

Enter ICAO airport designator
Station Type Date Time Source
KBOW METAR 2021/05/10 01:55 UTC NOAA

KBOW 100155Z AUTO 00000KT 10SM FEW036 SCT065 23/18 A3008 RMK AO2


Station Type Date Time Source
KBOW Decoded METAR 2021/05/10 01:55 UTC NOAA

Bartow Municipal, FL, United States (KBOW) 27-57N 081-47W
May 09, 2021 - 09:55 PM EDT / 2021.05.10 0155 UTC
Wind: Calm:0
Visibility: 10 mile(s):0
Sky conditions: partly cloudy
Temperature: 73 F (23 C)
Dew Point: 64 F (18 C)
Relative Humidity: 73%
Pressure (altimeter): 30.08 in. Hg (1018 hPa)
ob: KBOW 100155Z AUTO 00000KT 10SM FEW036 SCT065 23/18 A3008 RMK AO2
cycle: 2

Station Type Date Time Source
KBOW TAF UTC NOAA

Error!

Example: see airport list